Time;durP1;ratioP1;P1;durP2;ratioP2;P2;SDS_P1;SDS_P2;PMS_P1;PMS_P2;Temp;Humidity;BMP_temperature;BMP_pressure;BME280_temperature;BME280_humidity;BME280_pressure;Samples;Min_cycle;Max_cycle;Signal;HPM_P1;HPM_P2
2022/12/13 00:06:15;;;;;;;14.90;9.40;;;;;;;-2.57;96.39;98618.05;434703;1290;143878;-66
2022/12/13 00:16:23;;;;;;;10.50;9.10;;;;;;;-2.58;96.57;98622.71;435466;1283;142237;-65
2022/12/13 00:26:31;;;;;;;13.10;10.70;;;;;;;-2.63;96.57;98630.56;435307;1276;142316;-65
2022/12/13 00:36:36;;;;;;;12.90;10.50;;;;;;;-2.69;96.55;98638.40;434851;1276;143018;-65
2022/12/13 00:46:42;;;;;;;14.00;11.40;;;;;;;-2.70;96.52;98641.51;435364;1283;142897;-65
2022/12/13 00:56:50;;;;;;;14.90;10.70;;;;;;;-2.77;96.45;98645.46;435612;1276;142641;-65
2022/12/13 01:06:55;;;;;;;16.90;12.30;;;;;;;-2.85;96.20;98655.75;431412;1283;197618;-65
2022/12/13 01:17:01;;;;;;;12.90;11.50;;;;;;;-2.90;96.42;98658.27;435461;1283;144100;-65
2022/12/13 01:27:07;;;;;;;12.10;9.40;;;;;;;-2.98;96.23;98655.39;432347;1284;143036;-65
2022/12/13 01:37:12;;;;;;;13.10;10.50;;;;;;;-3.00;96.13;98658.52;435466;1283;141979;-66
2022/12/13 01:47:22;;;;;;;13.30;11.70;;;;;;;-3.11;96.03;98660.65;435371;1289;144615;-65
2022/12/13 01:57:28;;;;;;;11.10;9.90;;;;;;;-3.14;95.78;98670.46;434720;1283;142835;-66
2022/12/13 02:07:36;;;;;;;12.30;10.80;;;;;;;-3.24;95.95;98675.84;435370;1290;142548;-66
2022/12/13 02:18:02;;;;;;;12.50;10.30;;;;;;;-3.33;95.93;98679.96;435493;1282;142193;-66
2022/12/13 02:28:20;;;;;;;12.00;10.10;;;;;;;-3.38;95.79;98681.60;426108;1283;205831;-64
2022/12/13 02:38:45;;;;;;;12.70;9.80;;;;;;;-3.44;95.62;98689.44;432978;1284;141747;-65
2022/12/13 02:48:54;;;;;;;9.80;8.80;;;;;;;-3.52;95.47;98693.71;434652;1283;142333;-65
2022/12/13 02:59:03;;;;;;;10.60;8.70;;;;;;;-3.55;95.33;98700.29;435406;1281;142285;-65
2022/12/13 03:09:23;;;;;;;9.00;8.00;;;;;;;-3.57;95.33;98708.88;434773;1283;142051;-66
2022/12/13 03:19:29;;;;;;;9.10;7.50;;;;;;;-3.59;95.32;98706.86;435479;1284;141183;-66
2022/12/13 03:29:34;;;;;;;8.00;7.20;;;;;;;-3.59;95.28;98709.44;430472;1283;142253;-65
2022/12/13 03:39:40;;;;;;;9.80;7.40;;;;;;;-3.62;95.07;98707.61;434687;1282;144044;-65
2022/12/13 03:49:45;;;;;;;8.60;7.00;;;;;;;-3.62;95.04;98704.02;435436;1283;143948;-65
2022/12/13 03:59:58;;;;;;;8.60;6.80;;;;;;;-3.61;94.73;98710.85;434747;1284;144112;-65
2022/12/13 04:10:05;;;;;;;7.80;6.80;;;;;;;-3.64;94.47;98712.27;435436;1282;143932;-65
2022/12/13 04:20:30;;;;;;;6.70;5.40;;;;;;;-3.72;94.08;98720.30;435442;1284;146186;-65
2022/12/13 04:30:37;;;;;;;6.60;5.90;;;;;;;-3.76;93.92;98728.41;434614;1290;145991;-66
2022/12/13 04:40:43;;;;;;;6.90;5.50;;;;;;;-3.76;93.69;98734.05;435493;1284;143598;-65
2022/12/13 04:50:48;;;;;;;5.90;4.40;;;;;;;-3.74;93.91;98735.91;435555;1283;142176;-65
2022/12/13 05:00:54;;;;;;;6.70;6.10;;;;;;;-3.80;93.56;98741.30;434742;1284;141967;-65
2022/12/13 05:11:00;;;;;;;6.90;6.20;;;;;;;-3.99;93.25;98750.05;434716;1283;142170;-65
2022/12/13 05:21:08;;;;;;;9.90;6.80;;;;;;;-4.11;92.73;98759.99;421706;1283;144266;-65
2022/12/13 05:31:14;;;;;;;7.80;6.80;;;;;;;-4.26;92.59;98767.42;426046;1283;142501;-65
2022/12/13 05:41:32;;;;;;;7.70;6.80;;;;;;;-4.38;92.45;98770.69;419388;1283;143621;-64
2022/12/13 05:51:37;;;;;;;6.80;6.10;;;;;;;-4.48;93.07;98769.48;432564;1286;142309;-65
2022/12/13 06:01:43;;;;;;;9.10;6.80;;;;;;;-4.51;92.96;98772.63;418800;1280;143163;-65
2022/12/13 06:11:48;;;;;;;7.40;6.70;;;;;;;-4.59;92.92;98779.41;428716;1283;143403;-66
2022/12/13 06:21:55;;;;;;;6.70;6.10;;;;;;;-4.66;92.96;98791.98;425746;1283;143147;-66
2022/12/13 06:32:02;;;;;;;7.90;6.90;;;;;;;-4.66;92.88;98797.11;427545;1283;141893;-65
2022/12/13 06:42:16;;;;;;;5.70;5.00;;;;;;;-4.68;92.68;98805.15;434901;1286;144948;-66
2022/12/13 06:52:27;;;;;;;5.30;4.40;;;;;;;-4.70;92.48;98813.73;435548;1291;143524;-63
2022/12/13 07:02:32;;;;;;;5.70;5.10;;;;;;;-4.71;92.09;98821.94;435696;1284;141493;-65
2022/12/13 07:12:38;;;;;;;5.70;5.00;;;;;;;-4.73;91.92;98830.84;434954;1282;143468;-64
2022/12/13 07:22:43;;;;;;;;;;;;;;;-4.61;91.82;98835.64;435685;1282;142220;-64
2022/12/13 07:32:53;;;;;;;7.10;5.70;;;;;;;-4.63;91.84;98845.05;430481;1284;128969;-64
2022/12/13 07:42:59;;;;;;;8.50;7.50;;;;;;;-4.53;92.04;98858.23;430440;1283;209979;-64
2022/12/13 07:53:07;;;;;;;7.60;6.90;;;;;;;-4.44;92.04;98863.75;435622;1284;142130;-64
2022/12/13 08:03:13;;;;;;;6.60;6.00;;;;;;;-4.34;91.84;98871.98;434912;1284;200525;-65
2022/12/13 08:13:30;;;;;;;6.50;5.80;;;;;;;-4.25;91.48;98874.23;435725;1290;142473;-65
2022/12/13 08:23:36;;;;;;;6.40;5.70;;;;;;;-4.20;91.28;98880.65;435800;1284;143648;-64
2022/12/13 08:33:44;;;;;;;6.50;5.80;;;;;;;-4.04;91.21;98886.22;423780;1284;143056;-65
2022/12/13 08:43:50;;;;;;;6.00;5.30;;;;;;;-3.87;90.85;98895.03;435668;1276;143644;-64
2022/12/13 08:53:56;;;;;;;6.50;5.40;;;;;;;-3.94;90.31;98895.66;435211;1290;141894;-65
2022/12/13 09:04:15;;;;;;;10.30;6.80;;;;;;;-3.88;90.15;98906.84;435652;1292;144511;-65
2022/12/13 09:14:36;;;;;;;8.00;6.00;;;;;;;-3.83;89.68;98914.45;435700;1278;143369;-65
2022/12/13 09:24:49;;;;;;;6.00;5.40;;;;;;;-3.72;89.53;98917.35;435054;1284;143439;-65
2022/12/13 09:34:55;;;;;;;9.60;6.30;;;;;;;-3.68;89.10;98911.63;421214;1282;143795;-63
2022/12/13 09:45:03;;;;;;;5.50;4.70;;;;;;;-3.63;88.94;98911.05;433416;1284;197717;-65
2022/12/13 09:55:20;;;;;;;6.70;6.00;;;;;;;-3.51;88.61;98912.55;435661;1282;142821;-65
2022/12/13 10:05:31;;;;;;;8.10;6.40;;;;;;;-3.45;88.52;98913.83;435620;1276;196105;-65
2022/12/13 10:15:46;;;;;;;7.70;5.60;;;;;;;-3.46;88.37;98912.46;434905;1284;143079;-64
2022/12/13 10:25:54;;;;;;;7.80;6.80;;;;;;;-3.35;88.10;98911.23;435665;1283;143495;-65
2022/12/13 10:36:14;;;;;;;8.10;7.30;;;;;;;-3.38;88.09;98910.96;417949;1276;143949;-66
2022/12/13 10:46:21;;;;;;;9.10;7.40;;;;;;;-3.23;88.38;98904.86;434163;1282;142491;-65
2022/12/13 10:56:37;;;;;;;10.70;7.20;;;;;;;-3.26;87.99;98906.80;435662;1283;142344;-64
2022/12/13 11:06:45;;;;;;;9.30;7.60;;;;;;;-3.41;87.92;98900.39;434902;1286;143767;-65
2022/12/13 11:16:55;;;;;;;10.20;7.90;;;;;;;-3.59;87.84;98900.03;435815;1286;143088;-65
2022/12/13 11:27:08;;;;;;;9.70;7.40;;;;;;;-3.63;87.95;98898.89;434953;1283;142377;-65
2022/12/13 11:37:23;;;;;;;11.90;7.70;;;;;;;-3.55;87.93;98900.29;420283;1276;142508;-65
2022/12/13 11:47:50;;;;;;;;;;;;;;;-3.31;87.99;98907.56;435772;1283;141334;-64
2022/12/13 11:58:09;;;;;;;11.60;7.70;;;;;;;-3.10;87.55;98911.81;435433;1277;128307;-64
2022/12/13 12:08:25;;;;;;;12.10;8.60;;;;;;;-3.04;86.90;98919.05;435679;1283;142978;-64
2022/12/13 12:18:37;;;;;;;9.00;7.70;;;;;;;-3.02;86.72;98923.13;434825;1276;142217;-64
2022/12/13 12:29:01;;;;;;;8.90;6.90;;;;;;;-2.86;86.90;98923.00;434167;1284;143585;-63
2022/12/13 12:39:28;;;;;;;11.30;7.80;;;;;;;-2.83;85.97;98921.90;433500;1286;143654;-64
2022/12/13 12:50:02;;;;;;;9.40;6.70;;;;;;;-3.28;85.68;98930.13;435640;1277;142193;-63
2022/12/13 13:00:14;;;;;;;7.80;7.00;;;;;;;-3.45;85.79;98939.66;435074;1276;142687;-65
2022/12/13 13:10:20;;;;;;;10.50;7.70;;;;;;;-3.54;85.68;98949.57;435622;1283;186838;-65
2022/12/13 13:20:31;;;;;;;10.30;7.90;;;;;;;-3.60;85.63;98955.81;435719;1276;141733;-64
2022/12/13 13:31:14;;;;;;;10.30;9.20;;;;;;;-3.77;85.53;98967.39;429988;1277;209014;-64
2022/12/13 13:42:00;;;;;;;10.80;8.10;;;;;;;-3.97;85.78;98986.14;435582;1284;142665;-65
2022/12/13 13:52:18;;;;;;;12.20;10.10;;;;;;;-4.04;86.01;98988.14;435140;1285;196058;-64
2022/12/13 14:03:24;;;;;;;11.40;9.00;;;;;;;-4.14;86.22;98992.73;435723;1285;143489;-65
2022/12/13 14:14:21;;;;;;;17.40;12.50;;;;;;;-4.22;86.51;99001.02;435679;1291;143523;-65
2022/12/13 14:24:35;;;;;;;14.90;11.00;;;;;;;-4.28;86.67;99008.79;434846;1282;142998;-65
2022/12/13 14:34:46;;;;;;;14.50;10.90;;;;;;;-4.37;86.93;99010.95;432171;1284;142799;-65
2022/12/13 14:45:21;;;;;;;13.80;9.90;;;;;;;-4.59;86.97;99006.93;431891;1283;143332;-65
2022/12/13 14:55:30;;;;;;;11.90;9.30;;;;;;;-4.93;87.19;99011.05;435868;1283;142073;-65
2022/12/13 15:05:41;;;;;;;16.90;13.40;;;;;;;-5.11;87.89;99013.80;435724;1283;143596;-64
2022/12/13 15:15:58;;;;;;;17.60;12.90;;;;;;;-5.06;88.18;99016.81;434992;1284;142659;-64
2022/12/13 15:26:07;;;;;;;15.20;12.90;;;;;;;-5.01;88.32;99024.13;435691;1283;141938;-65
2022/12/13 15:36:17;;;;;;;16.00;12.80;;;;;;;-5.04;88.38;99027.55;423821;1284;146690;-64
2022/12/13 15:46:28;;;;;;;18.60;13.50;;;;;;;-5.10;88.35;99032.05;426188;1282;143130;-64
2022/12/13 15:56:35;;;;;;;17.50;12.10;;;;;;;-5.17;88.28;99037.75;435422;1280;144263;-64
2022/12/13 16:06:48;;;;;;;15.40;11.90;;;;;;;-5.12;88.54;99049.81;417468;1281;202329;-67
2022/12/13 16:16:58;;;;;;;14.40;11.80;;;;;;;-5.12;88.47;99049.31;427146;1283;142422;-66
2022/12/13 16:27:03;;;;;;;15.80;11.90;;;;;;;-5.21;88.42;99048.19;434744;1285;143384;-66
2022/12/13 16:37:13;;;;;;;14.50;12.20;;;;;;;-5.36;88.57;99045.92;435561;1283;142998;-66
2022/12/13 16:47:31;;;;;;;19.40;13.90;;;;;;;-5.45;88.92;99048.55;435708;1281;143306;-65
2022/12/13 16:57:58;;;;;;;23.70;14.90;;;;;;;-5.51;89.17;99052.69;434969;1284;142562;-65
2022/12/13 17:08:04;;;;;;;22.40;15.60;;;;;;;-5.60;89.09;99049.69;435547;1285;143256;-66
2022/12/13 17:18:08;;;;;;;;;;;;;;;-5.71;89.27;99055.22;435029;1281;143511;-66
2022/12/13 17:28:14;;;;;;;77.10;46.70;;;;;;;-5.68;89.66;99071.23;432254;1276;128796;-68
2022/12/13 17:38:45;;;;;;;63.80;34.70;;;;;;;-5.54;90.21;99080.70;433498;1290;145163;-66
2022/12/13 17:48:50;;;;;;;65.80;40.20;;;;;;;-5.42;90.16;99081.80;434888;1291;144848;-66
2022/12/13 17:58:56;;;;;;;73.50;42.30;;;;;;;-5.35;90.20;99087.38;435497;1289;142916;-65
2022/12/13 18:09:02;;;;;;;68.60;41.80;;;;;;;-5.38;90.30;99090.13;435130;1283;142689;-65
2022/12/13 18:19:10;;;;;;;74.80;43.30;;;;;;;-5.38;90.74;99095.42;435730;1276;142677;-65
2022/12/13 18:29:16;;;;;;;41.00;27.30;;;;;;;-5.43;90.87;99097.33;428478;1283;141957;-67
2022/12/13 18:39:22;;;;;;;38.80;25.50;;;;;;;-5.44;91.22;99098.86;433905;1284;143645;-65
2022/12/13 18:49:28;;;;;;;67.10;38.10;;;;;;;-5.42;91.59;99106.71;435643;1283;196602;-67
2022/12/13 18:59:33;;;;;;;40.30;25.00;;;;;;;-5.25;91.91;99111.02;435428;1281;144966;-67
2022/12/13 19:09:39;;;;;;;45.40;31.50;;;;;;;-5.12;91.82;99125.95;434664;1287;143670;-67
2022/12/13 19:19:47;;;;;;;47.30;29.00;;;;;;;-5.01;92.00;99127.58;435098;1278;141834;-65
2022/12/13 19:29:53;;;;;;;40.70;27.30;;;;;;;-4.97;91.98;99134.88;435126;1277;143853;-65
2022/12/13 19:39:59;;;;;;;58.00;33.50;;;;;;;-4.97;91.84;99136.60;431974;1284;145805;-66
2022/12/13 19:50:05;;;;;;;136.00;70.10;;;;;;;-5.05;91.75;99134.95;435117;1284;142924;-66
2022/12/13 20:00:13;;;;;;;54.70;34.30;;;;;;;-4.98;92.10;99136.26;434442;1277;142733;-66
2022/12/13 20:10:19;;;;;;;48.10;32.70;;;;;;;-4.92;92.14;99137.73;435085;1283;142975;-66
2022/12/13 20:20:25;;;;;;;68.90;40.40;;;;;;;-4.86;92.05;99142.47;435258;1284;142849;-66
2022/12/13 20:30:50;;;;;;;39.00;27.90;;;;;;;-4.83;92.09;99144.52;434508;1284;143233;-66
2022/12/13 20:40:58;;;;;;;42.30;32.50;;;;;;;-4.83;92.09;99143.13;423607;1276;142547;-66
2022/12/13 20:51:06;;;;;;;46.30;30.60;;;;;;;-4.81;92.07;99135.42;427715;1276;143915;-66
2022/12/13 21:01:15;;;;;;;44.80;31.00;;;;;;;-4.79;91.95;99141.39;435131;1282;142553;-67
2022/12/13 21:11:25;;;;;;;52.50;36.90;;;;;;;-4.73;92.13;99144.44;431029;1274;144448;-66
2022/12/13 21:21:31;;;;;;;39.70;27.40;;;;;;;-4.69;92.18;99150.88;434571;1276;142988;-67
2022/12/13 21:31:38;;;;;;;42.40;30.60;;;;;;;-4.65;92.04;99158.17;435213;1283;142809;-66
2022/12/13 21:41:45;;;;;;;41.60;26.50;;;;;;;-4.63;92.03;99162.60;435213;1281;145445;-66
2022/12/13 21:51:50;;;;;;;33.50;23.70;;;;;;;-4.70;91.81;99165.56;434432;1284;146431;-66
2022/12/13 22:12:33;;;;;;;42.90;26.60;;;;;;;-4.79;91.89;99166.69;421887;1283;143863;-66
2022/12/13 22:22:41;;;;;;;45.30;28.30;;;;;;;-4.87;91.87;99164.86;420635;1283;148263;-66
2022/12/13 22:32:46;;;;;;;37.10;25.10;;;;;;;-4.98;91.98;99166.48;435271;1282;142890;-67
2022/12/13 22:42:52;;;;;;;32.70;22.90;;;;;;;-5.00;92.09;99164.96;434488;1291;143850;-66
2022/12/13 22:52:58;;;;;;;31.50;22.90;;;;;;;-5.08;91.99;99168.25;435276;1289;198349;-65
2022/12/13 23:03:03;;;;;;;31.80;23.00;;;;;;;-5.08;91.95;99156.48;434526;1289;144074;-65
2022/12/13 23:13:29;;;;;;;31.50;23.40;;;;;;;-5.12;91.79;99151.38;435155;1284;143079;-66
2022/12/13 23:23:57;;;;;;;36.30;26.20;;;;;;;-5.14;91.93;99146.45;435146;1277;143425;-65
2022/12/13 23:34:03;;;;;;;37.70;26.10;;;;;;;-5.20;91.84;99130.61;431576;1283;210255;-66
2022/12/13 23:44:10;;;;;;;32.60;24.20;;;;;;;-5.26;91.82;99121.78;423273;1283;142467;-66
2022/12/13 23:54:18;;;;;;;33.00;22.80;;;;;;;-5.33;91.91;99131.22;422758;1277;144019;-67
